createdAt,value
2018-09-28T00:01:22.227Z,3.93
2018-09-28T00:03:50.706Z,4.67
2018-09-28T00:06:19.169Z,4.60
2018-09-28T00:08:47.609Z,4.13
2018-09-28T00:11:16.094Z,4.60
2018-09-28T00:13:44.501Z,4.27
2018-09-28T00:16:12.945Z,4.60
2018-09-28T00:18:41.361Z,4.10
2018-09-28T00:21:09.781Z,4.67
2018-09-28T00:23:38.190Z,4.27
2018-09-28T00:26:07.122Z,4.27
2018-09-28T00:28:35.498Z,4.50
2018-09-28T00:31:03.969Z,4.57
2018-09-28T00:33:32.374Z,4.60
2018-09-28T00:36:00.888Z,4.10
2018-09-28T00:38:29.271Z,3.83
2018-09-28T00:40:58.070Z,4.53
2018-09-28T00:43:26.493Z,4.40
2018-09-28T00:45:54.939Z,4.43
2018-09-28T00:48:23.599Z,4.30
2018-09-28T00:50:52.045Z,4.80
2018-09-28T00:53:20.458Z,4.40
2018-09-28T00:55:48.905Z,4.00
2018-09-28T00:58:17.796Z,4.10
2018-09-28T01:00:46.269Z,4.10
2018-09-28T01:03:14.745Z,4.60
2018-09-28T01:05:43.190Z,4.63
2018-09-28T01:08:11.604Z,5.30
2018-09-28T01:10:40.097Z,5.10
2018-09-28T01:13:08.521Z,4.73
2018-09-28T01:15:36.955Z,5.40
2018-09-28T01:18:05.381Z,5.70
2018-09-28T01:20:33.856Z,5.07
2018-09-28T01:23:02.278Z,5.20
2018-09-28T01:25:31.085Z,4.40
2018-09-28T01:27:59.498Z,5.80
2018-09-28T01:30:28.098Z,5.17
2018-09-28T01:32:56.511Z,4.43
2018-09-28T01:35:24.992Z,4.93
2018-09-28T01:37:53.414Z,5.73
2018-09-28T01:40:21.848Z,4.90
2018-09-28T01:42:50.300Z,4.63
2018-09-28T01:45:18.734Z,5.13
2018-09-28T01:47:47.250Z,4.60
2018-09-28T01:50:15.765Z,5.00
2018-09-28T01:52:44.214Z,4.30
2018-09-28T01:55:12.830Z,4.57
2018-09-28T01:57:41.241Z,4.67
2018-09-28T02:00:09.790Z,4.43
2018-09-28T02:02:38.269Z,3.50
2018-09-28T02:05:06.761Z,4.50
2018-09-28T02:07:35.397Z,3.67
2018-09-28T02:10:03.934Z,4.07
2018-09-28T02:12:32.459Z,4.10
2018-09-28T02:15:00.861Z,3.50
2018-09-28T02:17:29.304Z,4.10
2018-09-28T02:19:57.733Z,4.57
2018-09-28T02:22:26.158Z,4.10
2018-09-28T02:24:54.606Z,5.13
2018-09-28T02:27:23.025Z,4.97
2018-09-28T02:29:51.476Z,4.53
2018-09-28T02:32:19.889Z,4.30
2018-09-28T02:34:48.537Z,4.27
2018-09-28T02:37:16.945Z,4.67
2018-09-28T02:39:45.385Z,4.00
2018-09-28T02:42:13.857Z,4.03
2018-09-28T02:44:42.309Z,4.53
2018-09-28T02:47:10.736Z,3.70
2018-09-28T02:49:39.189Z,4.23
2018-09-28T02:52:07.645Z,4.30
2018-09-28T02:54:36.140Z,4.50
2018-09-28T02:57:04.620Z,4.30
2018-09-28T02:59:33.033Z,4.60
2018-09-28T03:02:01.422Z,4.40
2018-09-28T03:04:29.869Z,4.50
2018-09-28T03:06:58.297Z,4.10
2018-09-28T03:09:26.741Z,4.17
2018-09-28T03:11:55.157Z,4.83
2018-09-28T03:14:23.613Z,4.97
2018-09-28T03:16:52.037Z,5.00
2018-09-28T03:19:20.486Z,4.50
2018-09-28T03:21:48.902Z,4.43
2018-09-28T03:24:17.337Z,4.80
2018-09-28T03:26:45.762Z,4.60
2018-09-28T03:29:14.194Z,4.87
2018-09-28T03:31:42.616Z,5.77
2018-09-28T03:34:11.220Z,3.93
2018-09-28T03:36:39.630Z,5.30
2018-09-28T03:39:08.337Z,3.80
2018-09-28T03:41:36.877Z,4.70
2018-09-28T03:44:05.650Z,3.70
2018-09-28T03:46:34.187Z,4.80
2018-09-28T03:49:02.692Z,3.93
2018-09-28T03:51:31.117Z,4.80
2018-09-28T03:53:59.616Z,4.97
2018-09-28T03:56:28.029Z,4.47
2018-09-28T03:58:56.541Z,5.60
2018-09-28T04:01:25.466Z,5.07
2018-09-28T04:03:53.886Z,4.60
2018-09-28T04:06:22.297Z,4.90
2018-09-28T04:08:50.757Z,5.07
2018-09-28T04:11:19.320Z,4.43
2018-09-28T04:13:47.792Z,5.00
2018-09-28T04:16:16.190Z,5.47
2018-09-28T04:18:44.630Z,4.83
2018-09-28T04:21:13.106Z,4.90
2018-09-28T04:23:41.561Z,4.53
2018-09-28T04:26:09.997Z,4.50
2018-09-28T04:28:38.896Z,5.37
2018-09-28T04:31:07.334Z,5.67
2018-09-28T04:33:35.886Z,4.67
2018-09-28T04:36:04.322Z,4.57
2018-09-28T04:38:32.818Z,5.00
2018-09-28T04:41:01.237Z,4.57
2018-09-28T04:43:29.834Z,5.50
2018-09-28T04:45:58.249Z,5.13
2018-09-28T04:48:26.718Z,4.53
2018-09-28T04:50:55.249Z,5.00
2018-09-28T04:53:24.833Z,4.17
2018-09-28T04:55:53.338Z,4.67
2018-09-28T04:58:21.769Z,4.13
2018-09-28T05:00:50.226Z,4.10
2018-09-28T05:03:18.658Z,4.10
2018-09-28T05:05:47.077Z,4.30
2018-09-28T05:08:15.545Z,4.43
2018-09-28T05:10:43.953Z,4.30
2018-09-28T05:13:12.464Z,4.43
2018-09-28T05:15:41.064Z,4.10
2018-09-28T05:18:09.505Z,4.87
2018-09-28T05:20:37.940Z,4.13
2018-09-28T05:23:06.438Z,4.47
2018-09-28T05:25:35.196Z,4.37
2018-09-28T05:28:03.657Z,4.80
2018-09-28T05:30:32.571Z,4.00
2018-09-28T05:33:01.188Z,4.83
2018-09-28T05:35:29.582Z,5.00
2018-09-28T05:37:58.037Z,4.50
2018-09-28T05:40:26.491Z,5.67
2018-09-28T05:42:54.898Z,4.70
2018-09-28T05:45:23.345Z,6.67
2018-09-28T05:47:51.776Z,6.90
2018-09-28T05:50:20.215Z,4.60
2018-09-28T05:52:48.822Z,4.83
2018-09-28T05:55:17.257Z,4.90
2018-09-28T05:57:45.666Z,5.13
2018-09-28T06:00:19.341Z,5.17
2018-09-28T06:02:53.230Z,5.13
2018-09-28T06:05:26.911Z,4.53
2018-09-28T06:07:55.278Z,4.70
2018-09-28T06:10:23.730Z,5.20
2018-09-28T06:12:52.166Z,5.40
2018-09-28T06:15:20.601Z,4.90
2018-09-28T06:17:49.047Z,4.40
2018-09-28T06:20:17.462Z,5.53
2018-09-28T06:22:45.917Z,5.63
2018-09-28T06:25:14.354Z,4.70
2018-09-28T06:27:42.816Z,4.80
2018-09-28T06:30:11.288Z,5.23
2018-09-28T06:32:40.431Z,5.10
2018-09-28T06:35:08.954Z,5.17
2018-09-28T06:37:37.418Z,5.80
2018-09-28T06:40:05.892Z,5.30
2018-09-28T06:42:34.345Z,4.73
2018-09-28T06:45:02.817Z,4.60
2018-09-28T06:47:31.269Z,5.10
2018-09-28T06:49:59.793Z,6.03
2018-09-28T06:52:28.629Z,5.50
2018-09-28T06:54:57.054Z,5.63
2018-09-28T06:57:25.497Z,5.67
2018-09-28T06:59:54.048Z,5.20
2018-09-28T07:02:22.416Z,5.40
2018-09-28T07:04:50.827Z,6.50
2018-09-28T07:07:19.523Z,5.10
2018-09-28T07:09:48.074Z,5.33
2018-09-28T07:12:16.722Z,5.10
2018-09-28T07:14:45.100Z,4.97
2018-09-28T07:17:13.542Z,4.97
2018-09-28T07:19:41.953Z,5.00
2018-09-28T07:22:10.382Z,5.30
2018-09-28T07:24:38.811Z,4.83
2018-09-28T07:27:07.478Z,4.97
2018-09-28T07:29:35.899Z,5.00
2018-09-28T07:32:04.330Z,5.00
2018-09-28T07:34:32.811Z,4.40
2018-09-28T07:37:01.288Z,4.60
2018-09-28T07:39:29.669Z,4.83
2018-09-28T07:41:58.180Z,4.27
2018-09-28T07:44:26.553Z,4.63
2018-09-28T07:46:55.010Z,4.73
2018-09-28T07:49:23.430Z,4.27
2018-09-28T07:51:51.885Z,4.43
2018-09-28T07:54:20.291Z,4.70
2018-09-28T07:56:48.717Z,4.80
2018-09-28T07:59:17.283Z,5.10
2018-09-28T08:01:45.695Z,5.47
2018-09-28T08:04:14.397Z,5.23
2018-09-28T08:06:42.821Z,4.67
2018-09-28T08:09:11.992Z,5.20
2018-09-28T08:11:40.437Z,4.90
2018-09-28T08:14:09.293Z,5.00
2018-09-28T08:16:38.195Z,5.63
2018-09-28T08:19:06.860Z,5.03
2018-09-28T08:21:35.466Z,5.47
2018-09-28T08:24:04.178Z,5.93
2018-09-28T08:26:32.615Z,6.27
2018-09-28T08:29:01.106Z,4.47
2018-09-28T08:31:29.526Z,5.00
2018-09-28T08:33:57.977Z,5.50
2018-09-28T08:36:26.460Z,4.90
2018-09-28T08:38:54.916Z,5.63
2018-09-28T08:41:23.331Z,4.60
2018-09-28T08:43:51.785Z,5.30
2018-09-28T08:46:20.737Z,5.03
2018-09-28T08:48:49.206Z,4.90
2018-09-28T08:51:17.734Z,4.60
2018-09-28T08:53:46.205Z,4.93
2018-09-28T08:56:14.638Z,5.53
2018-09-28T08:58:43.102Z,5.67
2018-09-28T09:01:11.554Z,4.70
2018-09-28T09:03:40.014Z,4.90
2018-09-28T09:06:08.506Z,5.57
2018-09-28T09:08:36.953Z,5.10
2018-09-28T09:11:05.383Z,4.13
2018-09-28T09:13:34.213Z,4.60
2018-09-28T09:16:02.629Z,4.80
2018-09-28T09:18:31.079Z,5.70
2018-09-28T09:20:59.556Z,6.20
2018-09-28T09:23:28.013Z,5.40
2018-09-28T09:25:56.450Z,5.73
2018-09-28T09:28:24.907Z,5.07
2018-09-28T09:30:53.370Z,6.73
2018-09-28T09:33:21.821Z,6.10
2018-09-28T09:35:50.246Z,4.90
2018-09-28T09:38:18.698Z,5.20
2018-09-28T09:40:47.121Z,5.37
2018-09-28T09:43:15.565Z,5.43
2018-09-28T09:45:44.005Z,4.87
2018-09-28T09:48:12.421Z,4.43
2018-09-28T09:50:41.233Z,5.60
2018-09-28T09:53:09.689Z,4.90
2018-09-28T09:55:38.160Z,5.63
2018-09-28T09:58:06.729Z,5.20
2018-09-28T10:00:40.502Z,5.90
2018-09-28T10:03:14.223Z,4.70
2018-09-28T10:05:42.645Z,4.77
2018-09-28T10:08:11.143Z,4.70
2018-09-28T10:10:39.606Z,4.80
2018-09-28T10:13:08.050Z,5.40
2018-09-28T10:15:36.638Z,4.90
2018-09-28T10:18:05.101Z,4.77
2018-09-28T10:20:34.267Z,5.50
2018-09-28T10:23:02.801Z,5.00
2018-09-28T10:25:31.268Z,5.13
2018-09-28T10:28:00.189Z,5.00
2018-09-28T10:30:28.614Z,4.90
2018-09-28T10:32:57.041Z,4.20
2018-09-28T10:35:25.486Z,4.47
2018-09-28T10:37:54.345Z,5.10
2018-09-28T10:40:22.916Z,5.33
2018-09-28T10:42:51.305Z,4.73
2018-09-28T10:45:19.794Z,5.03
2018-09-28T10:47:48.187Z,5.30
2018-09-28T10:50:16.634Z,4.80
2018-09-28T10:52:45.115Z,9.40
2018-09-28T10:55:13.502Z,5.57
2018-09-28T10:57:41.965Z,4.97
2018-09-28T11:00:10.541Z,4.80
2018-09-28T11:02:38.977Z,5.17
2018-09-28T11:05:07.546Z,5.13
2018-09-28T11:07:35.969Z,4.43
2018-09-28T11:10:04.626Z,4.70
2018-09-28T11:12:33.057Z,3.17
2018-09-28T11:15:01.549Z,3.23
2018-09-28T11:17:30.862Z,3.07
2018-09-28T11:19:59.318Z,2.80
2018-09-28T11:22:27.763Z,3.60
2018-09-28T11:24:56.227Z,4.10
2018-09-28T11:27:24.965Z,3.87
2018-09-28T11:29:53.394Z,4.50
2018-09-28T11:32:21.826Z,4.70
2018-09-28T11:34:50.307Z,4.53
2018-09-28T11:37:18.737Z,4.63
2018-09-28T11:39:47.229Z,4.07
2018-09-28T11:42:15.671Z,4.47
2018-09-28T11:44:44.095Z,4.40
2018-09-28T11:47:12.546Z,4.17
2018-09-28T11:49:40.988Z,5.10
2018-09-28T11:52:09.475Z,5.37
2018-09-28T11:54:37.921Z,4.90
2018-09-28T11:57:06.416Z,5.70
2018-09-28T11:59:34.874Z,5.07
2018-09-28T12:02:03.382Z,4.57
2018-09-28T12:04:31.856Z,3.67
2018-09-28T12:07:00.541Z,4.17
2018-09-28T12:09:28.864Z,5.13
2018-09-28T12:11:57.342Z,4.30
2018-09-28T12:14:25.823Z,4.60
2018-09-28T12:16:54.280Z,5.00
2018-09-28T12:19:22.715Z,6.07
2018-09-28T12:21:51.218Z,4.70
2018-09-28T12:24:19.713Z,5.90
2018-09-28T12:26:48.159Z,7.00
2018-09-28T12:29:16.574Z,5.97
2018-09-28T12:31:45.038Z,5.83
2018-09-28T12:34:13.483Z,5.50
2018-09-28T12:36:41.966Z,5.07
2018-09-28T12:39:11.981Z,6.17
2018-09-28T12:41:40.518Z,5.83
2018-09-28T12:44:09.297Z,5.87
2018-09-28T12:46:38.027Z,5.30
2018-09-28T12:49:06.918Z,5.50
2018-09-28T12:51:35.502Z,4.57
2018-09-28T12:54:03.939Z,4.07
2018-09-28T12:56:32.432Z,4.40
2018-09-28T12:59:00.864Z,5.30
2018-09-28T13:01:29.366Z,4.40
2018-09-28T13:03:57.785Z,4.53
2018-09-28T13:06:26.292Z,5.20
2018-09-28T13:08:54.658Z,4.70
2018-09-28T13:11:23.089Z,5.00
2018-09-28T13:13:51.501Z,4.63
2018-09-28T13:16:19.954Z,5.20
2018-09-28T13:18:48.432Z,5.00
2018-09-28T13:21:16.864Z,5.97
2018-09-28T13:23:45.297Z,6.87
2018-09-28T13:26:13.729Z,4.90
2018-09-28T13:28:42.169Z,5.50
2018-09-28T13:31:10.623Z,5.50
2018-09-28T13:33:40.054Z,4.30
2018-09-28T13:36:08.550Z,5.10
2018-09-28T13:38:37.234Z,5.40
2018-09-28T13:41:05.538Z,5.00
2018-09-28T13:43:34.018Z,5.70
2018-09-28T13:46:02.481Z,5.20
2018-09-28T13:48:30.888Z,5.53
2018-09-28T13:50:59.319Z,5.60
2018-09-28T13:53:27.782Z,4.40
2018-09-28T13:55:56.190Z,4.43
2018-09-28T13:58:24.768Z,5.07
2018-09-28T14:00:53.145Z,7.30
2018-09-28T14:03:21.602Z,5.80
2018-09-28T14:05:50.058Z,5.10
2018-09-28T14:08:18.874Z,5.30
2018-09-28T14:10:47.369Z,5.33
2018-09-28T14:13:15.766Z,4.80
2018-09-28T14:15:44.189Z,5.03
2018-09-28T14:18:12.682Z,4.80
2018-09-28T14:20:41.124Z,4.90
2018-09-28T14:23:09.547Z,4.70
2018-09-28T14:25:37.981Z,5.70
2018-09-28T14:28:06.587Z,5.43
2018-09-28T14:30:35.072Z,5.60
2018-09-28T14:33:03.485Z,5.40
2018-09-28T14:35:31.892Z,5.70
2018-09-28T14:38:00.394Z,5.53
2018-09-28T14:40:28.869Z,6.23
2018-09-28T14:42:57.265Z,6.70
2018-09-28T14:45:25.693Z,6.30
2018-09-28T14:47:54.145Z,7.20
2018-09-28T14:50:22.686Z,7.53
2018-09-28T14:52:51.131Z,5.80
2018-09-28T14:55:19.681Z,5.93
2018-09-28T14:57:48.137Z,8.13
2018-09-28T15:00:16.664Z,7.47
2018-09-28T15:02:45.163Z,6.93
2018-09-28T15:05:13.521Z,7.67
2018-09-28T15:07:42.044Z,7.83
2018-09-28T15:10:10.488Z,8.00
2018-09-28T15:12:38.955Z,6.97
2018-09-28T15:15:07.528Z,8.10
2018-09-28T15:17:36.078Z,7.47
2018-09-28T15:20:04.688Z,8.17
2018-09-28T15:22:33.143Z,7.50
2018-09-28T15:25:01.585Z,7.17
2018-09-28T15:27:30.046Z,8.17
2018-09-28T15:29:58.485Z,8.80
2018-09-28T15:32:27.134Z,7.80
2018-09-28T15:34:55.593Z,7.23
2018-09-28T15:37:24.046Z,7.87
2018-09-28T15:39:52.520Z,7.80
2018-09-28T15:42:20.993Z,7.20
2018-09-28T15:44:50.132Z,8.97
2018-09-28T15:47:18.597Z,7.93
2018-09-28T15:49:47.025Z,7.00
2018-09-28T15:52:15.448Z,6.27
2018-09-28T15:54:43.889Z,7.30
2018-09-28T15:57:12.356Z,6.50
2018-09-28T15:59:40.849Z,6.90
2018-09-28T16:02:09.582Z,6.73
2018-09-28T16:04:38.061Z,7.17
2018-09-28T16:07:06.558Z,7.23
2018-09-28T16:09:35.038Z,7.03
2018-09-28T16:12:03.509Z,7.57
2018-09-28T16:14:31.934Z,8.70
2018-09-28T16:17:00.449Z,7.20
2018-09-28T16:19:28.894Z,8.00
2018-09-28T16:21:57.321Z,7.50
2018-09-28T16:24:25.769Z,8.57
2018-09-28T16:26:54.206Z,8.30
2018-09-28T16:29:22.654Z,8.00
2018-09-28T16:31:51.124Z,8.60
2018-09-28T16:34:19.653Z,8.13
2018-09-28T16:36:48.111Z,8.10
2018-09-28T16:39:16.590Z,7.30
2018-09-28T16:41:45.174Z,7.43
2018-09-28T16:44:13.618Z,7.90
2018-09-28T16:46:42.093Z,8.23
2018-09-28T16:49:10.561Z,8.43
2018-09-28T16:51:38.991Z,10.13
2018-09-28T16:54:07.486Z,8.90
2018-09-28T16:56:35.950Z,9.40
2018-09-28T16:59:04.553Z,10.17
2018-09-28T17:01:33.014Z,8.77
2018-09-28T17:04:01.491Z,10.23
2018-09-28T17:06:30.173Z,9.97
2018-09-28T17:08:58.637Z,11.00
2018-09-28T17:11:27.074Z,12.17
2018-09-28T17:13:55.534Z,11.03
2018-09-28T17:16:23.965Z,11.03
2018-09-28T17:18:52.378Z,11.00
2018-09-28T17:21:20.828Z,11.53
2018-09-28T17:23:49.252Z,10.90
2018-09-28T17:26:17.721Z,11.47
2018-09-28T17:28:46.143Z,9.80
2018-09-28T17:31:14.837Z,11.00
2018-09-28T17:33:43.307Z,10.77
2018-09-28T17:36:11.758Z,10.23
2018-09-28T17:38:40.289Z,9.73
2018-09-28T17:41:09.094Z,9.50
2018-09-28T17:43:37.531Z,10.60
2018-09-28T17:46:06.066Z,9.13
2018-09-28T17:48:34.522Z,9.63
2018-09-28T17:51:03.013Z,9.50
2018-09-28T17:53:31.533Z,8.60
2018-09-28T17:56:00.024Z,8.83
2018-09-28T17:58:29.070Z,8.10
2018-09-28T18:00:57.666Z,8.50
2018-09-28T18:03:26.654Z,8.70
2018-09-28T18:05:55.839Z,8.60
2018-09-28T18:08:24.325Z,8.30
2018-09-28T18:10:52.762Z,8.17
2018-09-28T18:13:21.217Z,7.50
2018-09-28T18:15:49.754Z,7.00
2018-09-28T18:18:18.209Z,7.57
2018-09-28T18:20:46.754Z,7.30
2018-09-28T18:23:15.380Z,6.13
2018-09-28T18:25:43.926Z,6.93
2018-09-28T18:28:12.373Z,5.77
2018-09-28T18:30:40.915Z,6.30
2018-09-28T18:33:09.376Z,6.57
2018-09-28T18:35:38.335Z,6.73
2018-09-28T18:38:06.844Z,7.33
2018-09-28T18:40:35.587Z,6.77
2018-09-28T18:43:04.126Z,5.83
2018-09-28T18:45:32.605Z,6.73
2018-09-28T18:48:01.053Z,6.60
2018-09-28T18:50:29.530Z,5.90
2018-09-28T18:52:58.721Z,5.73
2018-09-28T18:55:27.181Z,5.20
2018-09-28T18:57:55.630Z,5.17
2018-09-28T19:00:24.114Z,6.13
2018-09-28T19:02:53.656Z,5.60
2018-09-28T19:05:24.287Z,5.73
2018-09-28T19:07:53.317Z,5.60
2018-09-28T19:10:21.774Z,6.20
2018-09-28T19:12:50.336Z,5.43
2018-09-28T19:15:19.787Z,5.60
2018-09-28T19:17:50.378Z,6.57
2018-09-28T19:20:22.937Z,6.17
2018-09-28T19:22:51.396Z,6.23
2018-09-28T19:25:19.838Z,7.00
2018-09-28T19:27:52.150Z,6.87
2018-09-28T19:30:20.592Z,7.03
2018-09-28T19:32:49.049Z,5.80
2018-09-28T19:35:18.639Z,6.90
2018-09-28T19:37:47.637Z,6.70
2018-09-28T19:40:16.073Z,7.37
2018-09-28T19:42:44.528Z,7.03
2018-09-28T19:45:12.959Z,8.20
2018-09-28T19:47:41.406Z,8.80
2018-09-28T19:50:10.102Z,7.80
2018-09-28T19:52:39.143Z,8.30
2018-09-28T19:55:07.621Z,8.40
2018-09-28T19:57:36.087Z,8.60
2018-09-28T20:00:04.623Z,7.50
2018-09-28T20:02:33.157Z,8.07
2018-09-28T20:05:02.543Z,8.10
2018-09-28T20:07:31.690Z,9.23
2018-09-28T20:10:00.255Z,8.50
2018-09-28T20:12:29.715Z,9.23
2018-09-28T20:14:58.134Z,9.50
2018-09-28T20:17:26.575Z,10.10
2018-09-28T20:19:55.409Z,9.27
2018-09-28T20:22:24.658Z,8.77
2018-09-28T20:24:53.435Z,8.37
2018-09-28T20:27:22.214Z,8.90
2018-09-28T20:29:51.220Z,8.87
2018-09-28T20:32:19.911Z,9.50
2018-09-28T20:34:48.655Z,9.60
2018-09-28T20:37:17.454Z,9.70
2018-09-28T20:39:46.268Z,9.23
2018-09-28T20:42:14.927Z,9.80
2018-09-28T20:44:43.670Z,9.97
2018-09-28T20:47:12.817Z,10.37
2018-09-28T20:49:42.376Z,12.07
2018-09-28T20:52:11.224Z,11.53
2018-09-28T20:54:39.999Z,12.20
2018-09-28T20:57:09.286Z,10.97
2018-09-28T20:59:38.055Z,12.77
2018-09-28T21:02:06.878Z,12.63
2018-09-28T21:04:35.586Z,12.83
2018-09-28T21:07:04.526Z,13.00
2018-09-28T21:09:33.374Z,12.10
2018-09-28T21:12:02.380Z,14.13
2018-09-28T21:14:30.996Z,13.93
2018-09-28T21:17:06.623Z,14.60
2018-09-28T21:19:35.508Z,13.90
2018-09-28T21:22:04.406Z,14.43
2018-09-28T21:24:42.043Z,14.03
2018-09-28T21:27:10.955Z,13.18
2018-09-28T21:29:39.663Z,15.00
2018-09-28T21:32:08.207Z,13.80
2018-09-28T21:34:36.627Z,14.33
2018-09-28T21:37:05.109Z,14.33
2018-09-28T21:39:33.537Z,14.10
2018-09-28T21:42:03.122Z,16.60
2018-09-28T21:44:31.624Z,14.20
2018-09-28T21:47:00.238Z,15.67
2018-09-28T21:49:28.693Z,14.30
2018-09-28T21:51:57.117Z,16.40
2018-09-28T21:54:26.039Z,15.00
2018-09-28T21:56:54.501Z,15.68
2018-09-28T21:59:23.198Z,15.17
2018-09-28T22:01:51.621Z,15.17
2018-09-28T22:04:20.073Z,13.60
2018-09-28T22:06:48.582Z,12.80
2018-09-28T22:09:17.177Z,13.57
2018-09-28T22:11:45.654Z,11.63
2018-09-28T22:14:14.180Z,11.43
2018-09-28T22:16:42.690Z,11.13
2018-09-28T22:19:11.259Z,11.27
2018-09-28T22:21:39.705Z,11.60
2018-09-28T22:24:08.349Z,10.88
2018-09-28T22:26:38.403Z,9.90
2018-09-28T22:29:07.240Z,9.50
2018-09-28T22:31:35.786Z,8.95
2018-09-28T22:34:04.431Z,8.47
2018-09-28T22:36:32.894Z,9.17
2018-09-28T22:39:01.795Z,7.75
2018-09-28T22:41:30.458Z,8.77
2018-09-28T22:43:58.922Z,7.83
2018-09-28T22:46:27.368Z,7.60
2018-09-28T22:48:55.889Z,7.62
2018-09-28T22:51:24.363Z,6.70
2018-09-28T22:53:52.865Z,6.80
2018-09-28T22:56:21.947Z,6.30
2018-09-28T22:58:50.478Z,5.27
2018-09-28T23:01:19.003Z,7.50
2018-09-28T23:03:47.457Z,5.13
2018-09-28T23:06:15.898Z,4.90
2018-09-28T23:08:44.390Z,5.50
2018-09-28T23:11:12.849Z,5.37
2018-09-28T23:13:41.313Z,4.83
2018-09-28T23:16:10.373Z,5.97
2018-09-28T23:18:38.866Z,4.43
2018-09-28T23:21:07.330Z,4.77
2018-09-28T23:23:35.897Z,4.35
2018-09-28T23:26:04.605Z,4.40
2018-09-28T23:28:33.045Z,3.60
2018-09-28T23:31:01.530Z,3.60
2018-09-28T23:33:29.954Z,3.53
2018-09-28T23:35:58.442Z,3.50
2018-09-28T23:38:26.906Z,3.42
2018-09-28T23:40:55.426Z,3.60
2018-09-28T23:43:23.864Z,3.10
2018-09-28T23:45:52.358Z,3.20
2018-09-28T23:48:20.826Z,2.90
2018-09-28T23:50:49.298Z,3.50
2018-09-28T23:53:17.761Z,2.53
2018-09-28T23:55:46.433Z,2.98
2018-09-28T23:58:14.841Z,2.30
